Terminal Aerodrome Forecast
Issued by NWS

Home | Current Version | Previous Version | Text Only | Print | Product List | Glossary On
Versions: 1 2 3 4 5 6 7 8 9 10 11 12 13 14 15 16 17 18 19 20
000
FTUS43 KSGF 161900 AAA
TAFBBG
TAF AMD
KBBG 161930Z 1620/1718 07004KT P6SM BKN012 OVC035
      TEMPO 1620/1624 SCT015 BKN035
     FM170000 VRB03KT P6SM BKN025
     FM170500 12004KT 3SM BR BKN004 OVC020
     FM171200 14005KT 4SM BR BKN006 OVC014
      TEMPO 1712/1716 4SM -TSRA OVC015CB=

USA.gov is the U.S. government's official web portal to all federal, state and local government web resources and services.